createdAt,value
2016-10-20T00:00:33.707Z,99.99
2016-10-20T00:01:33.758Z,99.99
2016-10-20T00:02:33.794Z,99.99
2016-10-20T00:03:33.736Z,99.99
2016-10-20T00:04:33.879Z,99.99
2016-10-20T00:05:34.521Z,99.99
2016-10-20T00:06:34.041Z,99.99
2016-10-20T00:07:34.569Z,99.99
2016-10-20T00:08:34.376Z,99.99
2016-10-20T00:09:34.351Z,99.99
2016-10-20T00:10:33.992Z,99.99
2016-10-20T00:11:34.452Z,99.99
2016-10-20T00:12:34.074Z,99.99
2016-10-20T00:13:34.700Z,99.99
2016-10-20T00:14:33.997Z,99.99
2016-10-20T00:15:34.518Z,99.99
2016-10-20T00:16:34.509Z,99.99
2016-10-20T00:17:34.439Z,99.99
2016-10-20T00:18:34.442Z,99.99
2016-10-20T00:19:34.772Z,99.99
2016-10-20T00:20:34.214Z,99.99
2016-10-20T00:21:34.068Z,99.99
2016-10-20T00:22:34.080Z,99.99
2016-10-20T00:23:34.382Z,99.99
2016-10-20T00:24:34.010Z,99.99
2016-10-20T00:25:34.598Z,99.99
2016-10-20T00:26:34.362Z,99.99
2016-10-20T00:27:33.936Z,99.99
2016-10-20T00:28:34.302Z,99.99
2016-10-20T00:29:34.177Z,99.99
2016-10-20T00:30:34.189Z,99.99
2016-10-20T00:31:34.549Z,99.99
2016-10-20T00:32:34.292Z,99.99
2016-10-20T00:33:34.047Z,99.99
2016-10-20T00:34:34.467Z,99.99
2016-10-20T00:35:34.448Z,99.99
2016-10-20T00:36:34.490Z,99.99
2016-10-20T00:37:34.370Z,99.99
2016-10-20T00:38:34.296Z,99.99
2016-10-20T00:39:34.234Z,99.99
2016-10-20T00:40:34.892Z,99.99
2016-10-20T00:41:34.369Z,99.99
2016-10-20T00:42:34.589Z,99.99
2016-10-20T00:43:34.932Z,99.99
2016-10-20T00:44:34.730Z,99.99
2016-10-20T00:45:34.420Z,99.99
2016-10-20T00:46:35.155Z,99.99
2016-10-20T00:47:34.538Z,99.99
2016-10-20T00:48:34.698Z,99.99
2016-10-20T00:49:34.395Z,99.99
2016-10-20T00:50:34.418Z,99.99
2016-10-20T00:51:34.293Z,99.99
2016-10-20T00:52:34.556Z,99.99
2016-10-20T00:53:34.475Z,99.99
2016-10-20T00:54:34.885Z,99.99
2016-10-20T00:55:35.123Z,99.99
2016-10-20T00:56:34.597Z,99.99
2016-10-20T00:57:34.734Z,99.99
2016-10-20T00:58:34.584Z,99.99
2016-10-20T00:59:34.619Z,99.99
2016-10-20T01:00:35.208Z,99.99
2016-10-20T01:01:35.222Z,99.99
2016-10-20T01:02:34.683Z,99.99
2016-10-20T01:03:35.245Z,99.99
2016-10-20T01:04:34.961Z,99.99
2016-10-20T01:05:35.576Z,99.99
2016-10-20T01:06:34.768Z,99.99
2016-10-20T01:07:34.951Z,99.99
2016-10-20T01:08:34.632Z,99.99
2016-10-20T01:09:35.178Z,99.99
2016-10-20T01:10:34.773Z,99.99
2016-10-20T01:11:34.539Z,99.99
2016-10-20T01:12:35.175Z,99.99
2016-10-20T01:13:35.091Z,99.99
2016-10-20T01:14:34.699Z,99.99
2016-10-20T01:15:34.955Z,99.99
2016-10-20T01:16:34.772Z,99.99
2016-10-20T01:17:34.948Z,99.99
2016-10-20T01:18:35.549Z,99.99
2016-10-20T01:19:35.218Z,99.99
2016-10-20T01:20:35.231Z,99.99
2016-10-20T01:21:34.655Z,99.99
2016-10-20T01:22:35.238Z,99.99
2016-10-20T01:23:35.011Z,99.99
2016-10-20T01:24:35.125Z,99.99
2016-10-20T01:25:35.686Z,99.99
2016-10-20T01:26:35.190Z,99.99
2016-10-20T01:27:36.071Z,99.99
2016-10-20T01:28:35.773Z,99.99
2016-10-20T01:29:35.271Z,99.99
2016-10-20T01:30:35.551Z,99.99
2016-10-20T01:31:34.919Z,99.99
2016-10-20T01:32:35.399Z,99.99
2016-10-20T01:33:35.450Z,99.99
2016-10-20T01:34:35.058Z,99.99
2016-10-20T01:35:35.112Z,99.99
2016-10-20T01:36:35.569Z,99.99
2016-10-20T01:37:35.432Z,99.99
2016-10-20T01:38:35.077Z,99.99
2016-10-20T01:39:35.303Z,99.99
2016-10-20T01:40:35.368Z,99.99
2016-10-20T01:41:35.717Z,99.99
2016-10-20T01:42:35.372Z,99.99
2016-10-20T01:43:35.203Z,99.99
2016-10-20T01:44:35.168Z,99.99
2016-10-20T01:45:35.955Z,99.99
2016-10-20T01:46:35.389Z,99.99
2016-10-20T01:47:35.675Z,99.99
2016-10-20T01:48:35.819Z,99.99
2016-10-20T01:49:35.412Z,99.99
2016-10-20T01:50:35.539Z,99.99
2016-10-20T01:51:35.245Z,99.99
2016-10-20T01:52:35.301Z,99.99
2016-10-20T01:53:35.399Z,99.99
2016-10-20T01:54:35.757Z,99.99
2016-10-20T01:55:35.446Z,99.99
2016-10-20T01:56:35.386Z,99.99
2016-10-20T01:57:36.177Z,99.99
2016-10-20T01:58:35.698Z,99.99
2016-10-20T01:59:35.910Z,99.99
2016-10-20T02:00:35.759Z,99.99
2016-10-20T02:01:35.826Z,99.99
2016-10-20T02:02:35.785Z,99.99
2016-10-20T02:03:36.611Z,99.99
2016-10-20T02:04:35.933Z,99.99
2016-10-20T02:05:36.094Z,99.99
2016-10-20T02:06:35.973Z,99.99
2016-10-20T02:07:35.720Z,99.99
2016-10-20T02:08:35.592Z,99.99
2016-10-20T02:09:35.769Z,99.99
2016-10-20T02:10:35.518Z,99.99
2016-10-20T02:11:36.587Z,99.99
2016-10-20T02:12:35.776Z,99.99
2016-10-20T02:13:35.982Z,99.99
2016-10-20T02:14:35.610Z,99.99
2016-10-20T02:15:35.951Z,99.99
2016-10-20T02:16:35.673Z,99.99
2016-10-20T02:17:35.774Z,99.99
2016-10-20T02:18:36.567Z,99.99
2016-10-20T02:19:35.794Z,99.99
2016-10-20T02:20:36.059Z,99.99
2016-10-20T02:21:35.914Z,99.99
2016-10-20T02:22:35.998Z,99.99
2016-10-20T02:23:35.997Z,99.99
2016-10-20T02:24:36.138Z,99.99
2016-10-20T02:25:36.149Z,99.99
2016-10-20T02:26:35.903Z,99.99
2016-10-20T02:27:36.058Z,99.99
2016-10-20T02:28:36.624Z,99.99
2016-10-20T02:29:36.512Z,99.99
2016-10-20T02:30:36.197Z,99.99
2016-10-20T02:31:36.309Z,99.99
2016-10-20T02:32:36.464Z,99.99
2016-10-20T02:33:36.034Z,99.99
2016-10-20T02:34:36.231Z,99.99
2016-10-20T02:35:36.952Z,99.99
2016-10-20T02:36:36.099Z,99.99
2016-10-20T02:37:35.928Z,99.99
2016-10-20T02:38:36.822Z,99.99
2016-10-20T02:39:36.180Z,99.99
2016-10-20T02:40:36.047Z,99.99
2016-10-20T02:41:36.160Z,99.99
2016-10-20T02:42:36.480Z,99.99
2016-10-20T02:43:36.710Z,99.99
2016-10-20T02:44:36.650Z,99.99
2016-10-20T02:45:36.722Z,99.99
2016-10-20T02:46:37.124Z,99.99
2016-10-20T02:47:36.792Z,99.99
2016-10-20T02:48:36.554Z,99.99
2016-10-20T02:49:36.206Z,99.99
2016-10-20T02:50:36.736Z,99.99
2016-10-20T02:51:36.659Z,99.99
2016-10-20T02:52:36.365Z,99.99
2016-10-20T02:53:36.774Z,99.99
2016-10-20T02:54:36.204Z,99.99
2016-10-20T02:55:36.456Z,99.99
2016-10-20T02:56:36.633Z,99.99
2016-10-20T02:57:36.868Z,99.99
2016-10-20T02:58:36.601Z,99.99
2016-10-20T02:59:36.614Z,99.99
2016-10-20T03:00:36.716Z,99.99
2016-10-20T03:01:37.063Z,99.99
2016-10-20T03:02:36.729Z,99.99
2016-10-20T03:03:36.706Z,99.99
2016-10-20T03:04:36.691Z,99.99
2016-10-20T03:05:36.722Z,99.99
2016-10-20T03:06:36.925Z,99.99
2016-10-20T03:07:37.525Z,99.99
2016-10-20T03:08:37.591Z,99.99
2016-10-20T03:09:36.888Z,99.99
2016-10-20T03:10:37.004Z,99.99
2016-10-20T03:11:36.856Z,99.99
2016-10-20T03:12:36.619Z,99.99
2016-10-20T03:13:36.923Z,99.99
2016-10-20T03:14:37.459Z,99.99
2016-10-20T03:15:36.788Z,99.99
2016-10-20T03:16:37.002Z,99.99
2016-10-20T03:17:37.023Z,99.99
2016-10-20T03:18:37.523Z,99.99
2016-10-20T03:19:37.796Z,99.99
2016-10-20T03:20:37.046Z,99.99
2016-10-20T03:21:37.339Z,99.99
2016-10-20T03:22:37.225Z,99.99
2016-10-20T03:23:36.860Z,99.99
2016-10-20T03:24:36.909Z,99.99
2016-10-20T03:25:37.194Z,99.99
2016-10-20T03:26:37.188Z,99.99
2016-10-20T03:27:36.920Z,99.99
2016-10-20T03:28:36.764Z,99.99
2016-10-20T03:29:36.863Z,99.99
2016-10-20T03:30:37.269Z,99.99
2016-10-20T03:31:37.429Z,99.99
2016-10-20T03:32:36.816Z,99.99
2016-10-20T03:33:37.396Z,99.99
2016-10-20T03:34:37.071Z,99.99
2016-10-20T03:35:37.326Z,99.99
2016-10-20T03:36:37.626Z,99.99
2016-10-20T03:37:37.386Z,99.99
2016-10-20T03:38:37.386Z,99.99
2016-10-20T03:39:37.166Z,99.99
2016-10-20T03:40:37.276Z,99.99
2016-10-20T03:41:37.866Z,99.99
2016-10-20T03:42:36.977Z,99.99
2016-10-20T03:43:37.315Z,99.99
2016-10-20T03:44:37.327Z,99.99
2016-10-20T03:45:37.253Z,99.99
2016-10-20T03:46:37.228Z,99.99
2016-10-20T03:47:37.615Z,99.99
2016-10-20T03:48:37.477Z,99.99
2016-10-20T03:49:37.094Z,99.99
2016-10-20T03:50:37.644Z,99.99
2016-10-20T03:51:37.691Z,99.99
2016-10-20T03:52:37.220Z,99.99
2016-10-20T03:53:37.639Z,99.99
2016-10-20T03:54:37.728Z,99.99
2016-10-20T03:55:38.757Z,99.99
2016-10-20T03:56:37.324Z,99.99
2016-10-20T03:57:37.491Z,99.99
2016-10-20T03:58:38.262Z,99.99
2016-10-20T03:59:37.334Z,99.99
2016-10-20T04:00:38.117Z,99.99
2016-10-20T04:01:37.474Z,99.99
2016-10-20T04:02:38.084Z,99.99
2016-10-20T04:03:38.364Z,99.99
2016-10-20T04:04:37.738Z,99.99
2016-10-20T04:05:37.935Z,99.99
2016-10-20T04:06:38.072Z,99.99
2016-10-20T04:07:37.863Z,99.99
2016-10-20T04:08:37.584Z,99.99
2016-10-20T04:09:37.577Z,99.99
2016-10-20T04:10:37.825Z,99.99
2016-10-20T04:11:37.769Z,99.99
2016-10-20T04:12:37.618Z,99.99
2016-10-20T04:13:37.533Z,99.99
2016-10-20T04:14:37.660Z,99.99
2016-10-20T04:15:38.607Z,99.99
2016-10-20T04:16:37.904Z,99.99
2016-10-20T04:17:38.228Z,99.99
2016-10-20T04:18:38.273Z,99.99
2016-10-20T04:19:37.787Z,99.99
2016-10-20T04:20:38.552Z,99.99
2016-10-20T04:21:38.434Z,99.99
2016-10-20T04:22:38.616Z,99.99
2016-10-20T04:23:38.220Z,99.99
2016-10-20T04:24:37.842Z,99.99
2016-10-20T04:25:38.071Z,99.99
2016-10-20T04:26:39.077Z,99.99
2016-10-20T04:27:38.759Z,99.99
2016-10-20T04:28:38.007Z,99.99
2016-10-20T04:29:38.068Z,99.99
2016-10-20T04:30:38.492Z,99.99
2016-10-20T04:31:38.380Z,99.99
2016-10-20T04:32:38.155Z,99.99
2016-10-20T04:33:38.352Z,99.99
2016-10-20T04:34:38.068Z,99.99
2016-10-20T04:35:38.175Z,99.99
2016-10-20T04:36:38.405Z,99.99
2016-10-20T04:37:38.417Z,99.99
2016-10-20T04:38:38.337Z,99.99
2016-10-20T04:39:38.416Z,99.99
2016-10-20T04:40:37.934Z,99.99
2016-10-20T04:41:38.529Z,99.99
2016-10-20T04:42:37.998Z,99.99
2016-10-20T04:43:38.226Z,99.99
2016-10-20T04:44:38.834Z,99.99
2016-10-20T04:45:38.886Z,99.99
2016-10-20T04:46:39.307Z,99.99
2016-10-20T04:47:38.560Z,99.99
2016-10-20T04:48:38.970Z,99.99
2016-10-20T04:49:38.834Z,99.99
2016-10-20T04:50:38.853Z,99.99
2016-10-20T04:51:38.478Z,99.99
2016-10-20T04:52:38.747Z,99.99
2016-10-20T04:53:39.011Z,99.99
2016-10-20T04:54:38.665Z,99.99
2016-10-20T04:55:38.679Z,99.99
2016-10-20T04:56:39.018Z,99.99
2016-10-20T04:57:38.237Z,99.99
2016-10-20T04:58:38.805Z,99.99
2016-10-20T04:59:38.947Z,99.99
2016-10-20T05:00:38.721Z,99.99
2016-10-20T05:01:39.236Z,99.99
2016-10-20T05:02:38.709Z,99.99
2016-10-20T05:03:39.723Z,99.99
2016-10-20T05:04:39.492Z,99.99
2016-10-20T05:05:39.102Z,99.99
2016-10-20T05:06:38.882Z,99.99
2016-10-20T05:07:39.925Z,99.99
2016-10-20T05:08:39.582Z,99.99
2016-10-20T05:09:38.960Z,99.99
2016-10-20T05:10:39.615Z,99.99
2016-10-20T05:11:39.139Z,99.99
2016-10-20T05:12:38.851Z,99.99
2016-10-20T05:13:38.788Z,99.99
2016-10-20T05:14:38.895Z,99.99
2016-10-20T05:15:39.257Z,99.99
2016-10-20T05:16:39.653Z,99.99
2016-10-20T05:17:39.568Z,99.99
2016-10-20T05:18:40.052Z,99.99
2016-10-20T05:19:39.410Z,99.99
2016-10-20T05:20:39.846Z,99.99
2016-10-20T05:21:39.477Z,99.99
2016-10-20T05:22:39.445Z,99.99
2016-10-20T05:23:39.190Z,99.99
2016-10-20T05:24:38.775Z,99.99
2016-10-20T05:25:39.811Z,99.99
2016-10-20T05:26:39.154Z,99.99
2016-10-20T05:27:39.329Z,99.99
2016-10-20T05:28:39.171Z,99.99
2016-10-20T05:29:39.448Z,99.99
2016-10-20T05:30:39.395Z,99.99
2016-10-20T05:31:39.174Z,99.99
2016-10-20T05:32:39.375Z,99.99
2016-10-20T05:33:39.026Z,99.99
2016-10-20T05:34:39.729Z,99.99
2016-10-20T05:35:39.397Z,99.99
2016-10-20T05:36:39.518Z,99.99
2016-10-20T05:37:39.674Z,99.99
2016-10-20T05:38:39.307Z,99.99
2016-10-20T05:39:39.353Z,99.99
2016-10-20T05:40:40.374Z,99.99
2016-10-20T05:41:39.018Z,99.99
2016-10-20T05:42:39.094Z,99.99
2016-10-20T05:43:39.711Z,99.99
2016-10-20T05:44:39.380Z,99.99
2016-10-20T05:45:40.165Z,99.99
2016-10-20T05:46:40.191Z,99.99
2016-10-20T05:47:39.209Z,99.99
2016-10-20T05:48:40.010Z,99.99
2016-10-20T05:49:39.779Z,99.99
2016-10-20T05:50:39.645Z,99.99
2016-10-20T05:51:40.482Z,99.99
2016-10-20T05:52:39.566Z,99.99
2016-10-20T05:53:40.039Z,99.99
2016-10-20T05:54:39.927Z,99.99
2016-10-20T05:55:39.537Z,99.99
2016-10-20T05:56:39.729Z,99.99
2016-10-20T05:57:40.537Z,99.99
2016-10-20T05:58:40.163Z,99.99
2016-10-20T05:59:40.348Z,99.99
2016-10-20T06:00:40.103Z,99.99
2016-10-20T06:01:39.632Z,99.99
2016-10-20T06:02:40.281Z,99.99
2016-10-20T06:03:39.854Z,99.99
2016-10-20T06:04:39.765Z,99.99
2016-10-20T06:05:39.633Z,99.99
2016-10-20T06:06:39.652Z,99.99
2016-10-20T06:07:39.931Z,99.99
2016-10-20T06:08:39.861Z,99.99
2016-10-20T06:09:39.676Z,99.99
2016-10-20T06:10:39.591Z,99.99
2016-10-20T06:11:39.857Z,99.99
2016-10-20T06:12:40.078Z,99.99
2016-10-20T06:13:39.706Z,99.99
2016-10-20T06:14:40.473Z,99.99
2016-10-20T06:15:39.745Z,99.99
2016-10-20T06:16:40.215Z,99.99
2016-10-20T06:17:39.889Z,99.99
2016-10-20T06:18:39.682Z,99.99
2016-10-20T06:19:40.023Z,99.99
2016-10-20T06:20:40.107Z,99.99
2016-10-20T06:21:39.390Z,99.99
2016-10-20T06:22:39.700Z,99.99
2016-10-20T06:23:39.668Z,99.99
2016-10-20T06:24:39.836Z,99.99
2016-10-20T06:25:40.084Z,99.99
2016-10-20T06:26:39.551Z,99.99
2016-10-20T06:27:39.723Z,99.99
2016-10-20T06:28:39.711Z,99.99
2016-10-20T06:29:40.177Z,99.99
2016-10-20T06:30:40.136Z,99.99
2016-10-20T06:31:40.557Z,99.99
2016-10-20T06:32:40.703Z,99.99
2016-10-20T06:33:40.091Z,99.99
2016-10-20T06:34:39.751Z,99.99
2016-10-20T06:35:40.403Z,99.99
2016-10-20T06:36:40.656Z,99.99
2016-10-20T06:37:40.810Z,99.99
2016-10-20T06:38:39.999Z,99.99
2016-10-20T06:39:40.257Z,99.99
2016-10-20T06:40:40.095Z,99.99
2016-10-20T06:41:40.455Z,99.99
2016-10-20T06:42:40.057Z,99.99
2016-10-20T06:43:40.396Z,99.99
2016-10-20T06:44:40.062Z,99.99
2016-10-20T06:45:39.996Z,99.99
2016-10-20T06:46:39.847Z,99.99
2016-10-20T06:47:40.461Z,99.99
2016-10-20T06:48:40.299Z,99.99
2016-10-20T06:49:40.591Z,99.99
2016-10-20T06:50:40.484Z,99.99
2016-10-20T06:51:40.983Z,99.99
2016-10-20T06:52:41.051Z,99.99
2016-10-20T06:53:40.599Z,99.99
2016-10-20T06:54:41.721Z,99.99
2016-10-20T06:55:40.488Z,99.99
2016-10-20T06:56:40.167Z,99.99
2016-10-20T06:57:40.485Z,99.99
2016-10-20T06:58:40.352Z,99.99
2016-10-20T06:59:41.044Z,99.99
2016-10-20T07:00:40.325Z,99.99
2016-10-20T07:01:40.255Z,99.99
2016-10-20T07:02:41.141Z,99.99
2016-10-20T07:03:41.008Z,99.99
2016-10-20T07:04:40.571Z,99.99
2016-10-20T07:05:40.735Z,99.99
2016-10-20T07:06:40.921Z,99.99
2016-10-20T07:07:41.346Z,99.99
2016-10-20T07:08:41.777Z,99.99
2016-10-20T07:09:40.373Z,99.99
2016-10-20T07:10:40.635Z,99.99
2016-10-20T07:11:41.143Z,99.99
2016-10-20T07:12:41.532Z,99.99
2016-10-20T07:13:40.499Z,99.99
2016-10-20T07:14:41.068Z,99.99
2016-10-20T07:15:40.881Z,99.99
2016-10-20T07:16:41.502Z,99.99
2016-10-20T07:17:40.616Z,99.99
2016-10-20T07:18:40.592Z,99.99
2016-10-20T07:19:40.586Z,99.99
2016-10-20T07:20:40.712Z,99.99
2016-10-20T07:21:41.317Z,99.99
2016-10-20T07:22:40.967Z,99.99
2016-10-20T07:23:40.808Z,99.99
2016-10-20T07:24:40.664Z,99.99
2016-10-20T07:25:41.252Z,99.99
2016-10-20T07:26:41.397Z,99.99
2016-10-20T07:27:40.553Z,99.99
2016-10-20T07:28:40.865Z,99.99
2016-10-20T07:29:40.736Z,99.99
2016-10-20T07:30:41.624Z,99.99
2016-10-20T07:31:41.458Z,99.99
2016-10-20T07:32:40.784Z,99.99
2016-10-20T07:33:40.915Z,99.99
2016-10-20T07:34:41.544Z,99.99
2016-10-20T07:35:40.802Z,99.99
2016-10-20T07:36:41.206Z,99.99
2016-10-20T07:37:40.822Z,99.99
2016-10-20T07:38:41.042Z,99.99
2016-10-20T07:39:41.469Z,99.99
2016-10-20T07:40:40.893Z,99.99
2016-10-20T07:41:41.490Z,99.99
2016-10-20T07:42:41.655Z,99.99
2016-10-20T07:43:41.139Z,99.99
2016-10-20T07:44:40.989Z,99.99
2016-10-20T07:45:40.961Z,99.99
2016-10-20T07:46:41.013Z,99.99
2016-10-20T07:47:41.080Z,99.99
2016-10-20T07:48:41.725Z,99.99
2016-10-20T07:49:41.418Z,99.99
2016-10-20T07:50:41.582Z,99.99
2016-10-20T07:51:41.460Z,99.99
2016-10-20T07:52:41.833Z,99.99
2016-10-20T07:53:41.726Z,99.99
2016-10-20T07:54:41.269Z,99.99
2016-10-20T07:55:41.088Z,99.99
2016-10-20T07:56:42.000Z,99.99
2016-10-20T07:57:41.465Z,99.99
2016-10-20T07:58:41.330Z,99.99
2016-10-20T07:59:41.600Z,99.99
2016-10-20T08:00:41.213Z,99.99
2016-10-20T08:01:41.219Z,99.99
2016-10-20T08:02:41.259Z,99.99
2016-10-20T08:03:41.382Z,99.99
2016-10-20T08:04:41.354Z,99.99
2016-10-20T08:05:41.432Z,99.99
2016-10-20T08:06:42.047Z,99.99
2016-10-20T08:07:41.850Z,99.99
2016-10-20T08:08:41.383Z,99.99
2016-10-20T08:09:41.508Z,99.99
2016-10-20T08:10:42.395Z,99.99
2016-10-20T08:11:41.563Z,99.99
2016-10-20T08:12:41.461Z,99.99
2016-10-20T08:13:41.389Z,99.99
2016-10-20T08:14:41.871Z,99.99
2016-10-20T08:15:41.815Z,99.99
2016-10-20T08:16:41.953Z,99.99
2016-10-20T08:17:41.872Z,99.99
2016-10-20T08:18:41.844Z,99.99
2016-10-20T08:19:41.942Z,99.99
2016-10-20T08:20:41.874Z,99.99
2016-10-20T08:21:42.289Z,99.99
2016-10-20T08:22:42.083Z,99.99
2016-10-20T08:23:41.891Z,99.99
2016-10-20T08:24:41.731Z,99.99
2016-10-20T08:25:42.271Z,99.99
2016-10-20T08:26:42.139Z,99.99
2016-10-20T08:27:41.934Z,99.99
2016-10-20T08:28:42.013Z,99.99
2016-10-20T08:29:42.081Z,99.99
2016-10-20T08:30:42.099Z,99.99
2016-10-20T08:31:42.243Z,99.99
2016-10-20T08:32:41.645Z,99.99
2016-10-20T08:33:42.161Z,99.99
2016-10-20T08:34:41.961Z,99.99
2016-10-20T08:35:41.959Z,99.99
2016-10-20T08:36:41.948Z,99.99
2016-10-20T08:37:42.077Z,99.99
2016-10-20T08:38:41.824Z,99.99
2016-10-20T08:39:41.746Z,99.99
2016-10-20T08:40:42.046Z,99.99
2016-10-20T08:41:41.883Z,99.99
2016-10-20T08:42:42.685Z,99.99
2016-10-20T08:43:42.334Z,99.99
2016-10-20T08:44:42.101Z,99.99
2016-10-20T08:45:42.637Z,99.99
2016-10-20T08:46:42.087Z,99.99
2016-10-20T08:47:42.307Z,99.99
2016-10-20T08:48:41.956Z,99.99
2016-10-20T08:49:42.306Z,99.99
2016-10-20T08:50:42.286Z,99.99
2016-10-20T08:51:43.090Z,99.99
2016-10-20T08:52:42.579Z,99.99
2016-10-20T08:53:42.137Z,99.99
2016-10-20T08:54:42.192Z,99.99
2016-10-20T08:55:42.013Z,99.99
2016-10-20T08:56:42.922Z,99.99
2016-10-20T08:57:42.536Z,99.99
2016-10-20T08:58:42.309Z,99.99
2016-10-20T08:59:42.983Z,99.99
2016-10-20T09:00:42.301Z,99.99
2016-10-20T09:01:42.754Z,99.99
2016-10-20T09:02:42.720Z,99.99
2016-10-20T09:03:42.925Z,99.99
2016-10-20T09:04:42.941Z,99.99
2016-10-20T09:05:43.009Z,99.99
2016-10-20T09:06:42.399Z,99.99
2016-10-20T09:07:42.483Z,99.99
2016-10-20T09:08:42.936Z,99.99
2016-10-20T09:09:42.439Z,99.99
2016-10-20T09:10:42.567Z,99.99
2016-10-20T09:11:42.764Z,99.99
2016-10-20T09:12:42.449Z,99.99
2016-10-20T09:13:42.690Z,99.99
2016-10-20T09:14:42.716Z,99.99
2016-10-20T09:15:42.284Z,99.99
2016-10-20T09:16:42.556Z,99.99
2016-10-20T09:17:42.521Z,99.99
2016-10-20T09:18:42.819Z,99.99
2016-10-20T09:19:42.548Z,99.99
2016-10-20T09:20:42.739Z,99.99
2016-10-20T09:21:43.356Z,99.99
2016-10-20T09:22:43.263Z,99.99
2016-10-20T09:23:42.736Z,99.99
2016-10-20T09:24:42.777Z,99.99
2016-10-20T09:25:42.754Z,99.99
2016-10-20T09:26:43.427Z,99.99
2016-10-20T09:27:42.894Z,99.99
2016-10-20T09:28:42.687Z,99.99
2016-10-20T09:29:42.611Z,99.99
2016-10-20T09:30:42.799Z,99.99
2016-10-20T09:31:42.954Z,99.99
2016-10-20T09:32:42.735Z,99.99
2016-10-20T09:33:43.160Z,99.99
2016-10-20T09:34:42.633Z,99.99
2016-10-20T09:35:43.443Z,99.99
2016-10-20T09:36:43.219Z,99.99
2016-10-20T09:37:43.174Z,99.99
2016-10-20T09:38:42.869Z,99.99
2016-10-20T09:39:43.489Z,99.99
2016-10-20T09:40:43.197Z,99.99
2016-10-20T09:41:43.289Z,99.99
2016-10-20T09:42:43.032Z,99.99
2016-10-20T09:43:42.899Z,99.99
2016-10-20T09:44:43.801Z,99.99
2016-10-20T09:45:43.285Z,99.99
2016-10-20T09:46:43.100Z,99.99
2016-10-20T09:47:42.973Z,99.99
2016-10-20T09:48:43.122Z,99.99
2016-10-20T09:49:43.514Z,99.99
2016-10-20T09:50:43.327Z,99.99
2016-10-20T09:51:43.447Z,99.99
2016-10-20T09:52:43.141Z,99.99
2016-10-20T09:53:43.309Z,99.99
2016-10-20T09:54:43.723Z,99.99
2016-10-20T09:55:42.944Z,99.99
2016-10-20T09:56:43.143Z,99.99
2016-10-20T09:57:43.281Z,99.99
2016-10-20T09:58:43.218Z,99.99
2016-10-20T09:59:44.271Z,99.99
2016-10-20T10:00:43.887Z,99.99
2016-10-20T10:01:43.232Z,99.99
2016-10-20T10:02:43.452Z,99.99
2016-10-20T10:03:43.229Z,99.99
2016-10-20T10:04:44.064Z,99.99
2016-10-20T10:05:43.837Z,99.99
2016-10-20T10:06:43.330Z,99.99
2016-10-20T10:07:43.276Z,99.99
2016-10-20T10:08:44.033Z,99.99
2016-10-20T10:09:43.258Z,99.99
2016-10-20T10:10:43.775Z,99.99
2016-10-20T10:11:43.929Z,99.99
2016-10-20T10:12:43.389Z,99.99
2016-10-20T10:13:44.259Z,99.99
2016-10-20T10:14:44.320Z,99.99
2016-10-20T10:15:43.522Z,99.99
2016-10-20T10:16:43.915Z,99.99
2016-10-20T10:17:43.680Z,99.99
2016-10-20T10:18:44.080Z,99.99
2016-10-20T10:19:44.193Z,99.99
2016-10-20T10:20:43.787Z,99.99
2016-10-20T10:21:43.849Z,99.99
2016-10-20T10:22:44.459Z,99.99
2016-10-20T10:23:43.764Z,99.99
2016-10-20T10:24:43.952Z,99.99
2016-10-20T10:25:43.750Z,99.99
2016-10-20T10:26:44.076Z,99.99
2016-10-20T10:27:43.652Z,99.99
2016-10-20T10:28:44.060Z,99.99
2016-10-20T10:29:44.571Z,99.99
2016-10-20T10:30:44.412Z,99.99
2016-10-20T10:31:43.726Z,99.99
2016-10-20T10:32:44.236Z,99.99
2016-10-20T10:33:44.287Z,99.99
2016-10-20T10:34:43.844Z,99.99
2016-10-20T10:35:44.420Z,99.99
2016-10-20T10:36:44.768Z,99.99
2016-10-20T10:37:44.477Z,99.99
2016-10-20T10:38:43.946Z,99.99
2016-10-20T10:39:44.128Z,99.99
2016-10-20T10:40:44.052Z,99.99
2016-10-20T10:41:44.271Z,99.99
2016-10-20T10:42:44.486Z,99.99
2016-10-20T10:43:44.204Z,99.99
2016-10-20T10:44:44.192Z,99.99
2016-10-20T10:45:44.173Z,99.99
2016-10-20T10:46:44.272Z,99.99
2016-10-20T10:47:43.999Z,99.99
2016-10-20T10:48:44.148Z,99.99
2016-10-20T10:49:44.399Z,99.99
2016-10-20T10:50:44.679Z,99.99
2016-10-20T10:51:44.299Z,99.99
2016-10-20T10:52:44.373Z,99.99
2016-10-20T10:53:44.167Z,99.99
2016-10-20T10:54:44.370Z,99.99
2016-10-20T10:55:44.349Z,99.99
2016-10-20T10:56:44.444Z,99.99
2016-10-20T10:57:44.796Z,99.99
2016-10-20T10:58:44.333Z,99.99
2016-10-20T10:59:45.227Z,99.99
2016-10-20T11:00:44.440Z,99.99
2016-10-20T11:01:44.386Z,99.99
2016-10-20T11:02:44.659Z,99.99
2016-10-20T11:03:44.432Z,99.99
2016-10-20T11:04:44.312Z,99.99
2016-10-20T11:05:45.335Z,99.99
2016-10-20T11:06:44.448Z,99.99
2016-10-20T11:07:44.536Z,99.99
2016-10-20T11:08:44.425Z,99.99
2016-10-20T11:09:44.391Z,99.99
2016-10-20T11:10:44.323Z,99.99
2016-10-20T11:11:44.685Z,99.99
2016-10-20T11:12:44.537Z,99.99
2016-10-20T11:13:45.105Z,99.99
2016-10-20T11:14:44.815Z,99.99
2016-10-20T11:15:44.947Z,99.99
2016-10-20T11:16:44.916Z,99.99
2016-10-20T11:17:45.100Z,99.99
2016-10-20T11:18:44.857Z,99.99
2016-10-20T11:19:45.016Z,99.99
2016-10-20T11:20:44.795Z,99.99
2016-10-20T11:21:44.560Z,99.99
2016-10-20T11:22:44.755Z,99.99
2016-10-20T11:23:44.596Z,99.98
2016-10-20T11:24:45.185Z,99.02
2016-10-20T11:25:45.023Z,99.99
2016-10-20T11:26:44.990Z,99.99
2016-10-20T11:27:44.925Z,99.99
2016-10-20T11:28:45.280Z,99.99
2016-10-20T11:29:44.973Z,99.99
2016-10-20T11:30:44.948Z,99.99
2016-10-20T11:31:44.983Z,99.99
2016-10-20T11:32:45.067Z,99.36
2016-10-20T11:33:44.961Z,98.22
2016-10-20T11:34:45.054Z,99.99
2016-10-20T11:35:45.100Z,99.99
2016-10-20T11:36:45.240Z,99.99
2016-10-20T11:37:44.856Z,98.79
2016-10-20T11:38:45.049Z,99.69
2016-10-20T11:39:45.006Z,99.99
2016-10-20T11:40:45.053Z,99.99
2016-10-20T11:41:44.923Z,99.84
2016-10-20T11:42:45.324Z,99.65
2016-10-20T11:43:45.146Z,99.27
2016-10-20T11:44:44.984Z,98.98
2016-10-20T11:45:45.545Z,98.03
2016-10-20T11:46:45.182Z,96.79
2016-10-20T11:47:45.012Z,98.32
2016-10-20T11:48:44.976Z,97.46
2016-10-20T11:49:45.506Z,99.74
2016-10-20T11:50:45.310Z,99.99
2016-10-20T11:51:45.273Z,98.41
2016-10-20T11:52:45.612Z,99.46
2016-10-20T11:53:45.460Z,96.6
2016-10-20T11:54:45.852Z,96.89
2016-10-20T11:55:45.738Z,96.74
2016-10-20T11:56:45.579Z,99.02
2016-10-20T11:57:45.593Z,98.46
2016-10-20T11:58:45.116Z,98.83
2016-10-20T11:59:45.968Z,99.98
2016-10-20T12:00:45.863Z,99.99
2016-10-20T12:01:45.388Z,99.99
2016-10-20T12:02:45.360Z,99.99
2016-10-20T12:03:45.729Z,99.99
2016-10-20T12:04:45.774Z,99.99
2016-10-20T12:05:46.312Z,99.99
2016-10-20T12:06:45.819Z,99.55
2016-10-20T12:07:45.525Z,99.27
2016-10-20T12:08:45.678Z,99.99
2016-10-20T12:09:45.693Z,99.99
2016-10-20T12:10:45.673Z,99.99
2016-10-20T12:11:45.650Z,99.99
2016-10-20T12:12:45.531Z,99.99
2016-10-20T12:13:45.423Z,99.99
2016-10-20T12:14:45.990Z,99.99
2016-10-20T12:15:45.596Z,99.99
2016-10-20T12:16:45.707Z,99.99
2016-10-20T12:17:45.685Z,99.99
2016-10-20T12:18:45.336Z,99.99
2016-10-20T12:19:45.695Z,99.99
2016-10-20T12:20:45.417Z,99.99
2016-10-20T12:21:45.395Z,99.99
2016-10-20T12:22:45.393Z,99.99
2016-10-20T12:23:45.422Z,99.99
2016-10-20T12:24:45.460Z,99.99
2016-10-20T12:25:45.827Z,99.99
2016-10-20T12:26:45.485Z,99.99
2016-10-20T12:27:45.916Z,99.99
2016-10-20T12:28:45.538Z,99.99
2016-10-20T12:29:45.545Z,99.99
2016-10-20T12:30:45.534Z,99.99
2016-10-20T12:31:45.886Z,99.99
2016-10-20T12:32:45.600Z,99.99
2016-10-20T12:33:45.597Z,99.99
2016-10-20T12:34:45.617Z,99.99
2016-10-20T12:35:45.633Z,99.99
2016-10-20T12:36:45.670Z,99.99
2016-10-20T12:37:46.955Z,99.99
2016-10-20T12:38:46.830Z,99.99
2016-10-20T12:39:46.520Z,99.99
2016-10-20T12:40:46.805Z,99.99
2016-10-20T12:41:45.970Z,99.99
2016-10-20T12:42:46.057Z,99.99
2016-10-20T12:43:46.615Z,99.99
2016-10-20T12:44:46.211Z,99.99
2016-10-20T12:45:46.253Z,99.99
2016-10-20T12:46:46.238Z,99.99
2016-10-20T12:47:46.363Z,99.99
2016-10-20T12:48:46.875Z,99.99
2016-10-20T12:49:46.490Z,99.99
2016-10-20T12:50:46.759Z,99.99
2016-10-20T12:51:46.760Z,99.99
2016-10-20T12:52:46.670Z,99.99